sensor_id;sensor_type;location;lat;lon;timestamp;temperature;humidity
21830;DHT22;11077;50.264;6.798;2023-08-31T00:00:12;10.40;99.90
21830;DHT22;11077;50.264;6.798;2023-08-31T00:02:39;10.40;99.90
21830;DHT22;11077;50.264;6.798;2023-08-31T00:05:08;10.40;99.90
21830;DHT22;11077;50.264;6.798;2023-08-31T00:07:36;10.40;99.90
21830;DHT22;11077;50.264;6.798;2023-08-31T00:10:03;10.40;99.90
21830;DHT22;11077;50.264;6.798;2023-08-31T00:12:35;10.40;99.90
21830;DHT22;11077;50.264;6.798;2023-08-31T00:15:04;10.50;99.90
21830;DHT22;11077;50.264;6.798;2023-08-31T00:17:31;10.50;99.90
21830;DHT22;11077;50.264;6.798;2023-08-31T00:19:59;10.40;99.90
21830;DHT22;11077;50.264;6.798;2023-08-31T00:22:27;10.50;99.90
21830;DHT22;11077;50.264;6.798;2023-08-31T00:24:55;10.50;99.90
21830;DHT22;11077;50.264;6.798;2023-08-31T00:27:23;10.50;99.90
21830;DHT22;11077;50.264;6.798;2023-08-31T00:29:50;10.50;99.90
21830;DHT22;11077;50.264;6.798;2023-08-31T00:32:19;10.50;99.90
21830;DHT22;11077;50.264;6.798;2023-08-31T00:34:48;10.50;99.90
21830;DHT22;11077;50.264;6.798;2023-08-31T00:37:15;10.50;99.90
21830;DHT22;11077;50.264;6.798;2023-08-31T00:39:43;10.50;99.90
21830;DHT22;11077;50.264;6.798;2023-08-31T00:42:10;10.50;99.90
21830;DHT22;11077;50.264;6.798;2023-08-31T00:44:43;10.50;99.90
21830;DHT22;11077;50.264;6.798;2023-08-31T00:47:12;10.50;99.90
21830;DHT22;11077;50.264;6.798;2023-08-31T00:49:40;10.50;99.90
21830;DHT22;11077;50.264;6.798;2023-08-31T00:52:07;10.50;99.90
21830;DHT22;11077;50.264;6.798;2023-08-31T00:54:35;10.50;99.90
21830;DHT22;11077;50.264;6.798;2023-08-31T00:57:05;10.50;99.90
21830;DHT22;11077;50.264;6.798;2023-08-31T00:59:32;10.40;99.90
21830;DHT22;11077;50.264;6.798;2023-08-31T01:02:07;10.50;99.90
21830;DHT22;11077;50.264;6.798;2023-08-31T01:04:44;10.40;99.90
21830;DHT22;11077;50.264;6.798;2023-08-31T01:07:21;10.40;99.90
21830;DHT22;11077;50.264;6.798;2023-08-31T01:09:54;10.40;99.90
21830;DHT22;11077;50.264;6.798;2023-08-31T01:12:33;10.40;99.90
21830;DHT22;11077;50.264;6.798;2023-08-31T01:15:03;10.40;99.90
21830;DHT22;11077;50.264;6.798;2023-08-31T01:17:39;10.40;99.90
21830;DHT22;11077;50.264;6.798;2023-08-31T01:20:09;10.40;99.90
21830;DHT22;11077;50.264;6.798;2023-08-31T01:22:43;10.30;99.90
21830;DHT22;11077;50.264;6.798;2023-08-31T01:25:16;10.30;99.90
21830;DHT22;11077;50.264;6.798;2023-08-31T01:27:44;10.20;99.90
21830;DHT22;11077;50.264;6.798;2023-08-31T01:30:11;10.20;99.90
21830;DHT22;11077;50.264;6.798;2023-08-31T01:32:43;10.20;99.90
21830;DHT22;11077;50.264;6.798;2023-08-31T01:35:14;10.10;99.90
21830;DHT22;11077;50.264;6.798;2023-08-31T01:37:50;10.10;99.90
21830;DHT22;11077;50.264;6.798;2023-08-31T01:40:23;10.00;99.90
21830;DHT22;11077;50.264;6.798;2023-08-31T01:42:55;10.00;99.90
21830;DHT22;11077;50.264;6.798;2023-08-31T01:45:23;9.90;99.90
21830;DHT22;11077;50.264;6.798;2023-08-31T01:47:51;9.90;99.90
21830;DHT22;11077;50.264;6.798;2023-08-31T01:50:19;9.90;99.90
21830;DHT22;11077;50.264;6.798;2023-08-31T01:52:46;9.90;99.90
21830;DHT22;11077;50.264;6.798;2023-08-31T01:55:13;9.80;99.90
21830;DHT22;11077;50.264;6.798;2023-08-31T01:57:43;9.80;99.90
21830;DHT22;11077;50.264;6.798;2023-08-31T02:00:19;9.80;99.90
21830;DHT22;11077;50.264;6.798;2023-08-31T02:02:47;9.80;99.90
21830;DHT22;11077;50.264;6.798;2023-08-31T02:05:17;9.70;99.90
21830;DHT22;11077;50.264;6.798;2023-08-31T02:07:45;9.70;99.90
21830;DHT22;11077;50.264;6.798;2023-08-31T02:10:12;9.70;99.90
21830;DHT22;11077;50.264;6.798;2023-08-31T02:12:44;9.70;99.90
21830;DHT22;11077;50.264;6.798;2023-08-31T02:15:12;9.70;99.90
21830;DHT22;11077;50.264;6.798;2023-08-31T02:17:39;9.70;99.90
21830;DHT22;11077;50.264;6.798;2023-08-31T02:20:08;9.70;99.90
21830;DHT22;11077;50.264;6.798;2023-08-31T02:22:36;9.60;99.90
21830;DHT22;11077;50.264;6.798;2023-08-31T02:25:05;9.70;99.90
21830;DHT22;11077;50.264;6.798;2023-08-31T02:27:33;9.70;99.90
21830;DHT22;11077;50.264;6.798;2023-08-31T02:30:01;9.70;99.90
21830;DHT22;11077;50.264;6.798;2023-08-31T02:32:30;9.70;99.90
21830;DHT22;11077;50.264;6.798;2023-08-31T02:34:59;9.70;99.90
21830;DHT22;11077;50.264;6.798;2023-08-31T02:37:27;9.70;99.90
21830;DHT22;11077;50.264;6.798;2023-08-31T02:39:54;9.70;99.90
21830;DHT22;11077;50.264;6.798;2023-08-31T02:42:21;9.70;99.90
21830;DHT22;11077;50.264;6.798;2023-08-31T02:44:52;9.80;99.90
21830;DHT22;11077;50.264;6.798;2023-08-31T02:47:21;9.70;99.90
21830;DHT22;11077;50.264;6.798;2023-08-31T02:49:48;9.70;99.90
21830;DHT22;11077;50.264;6.798;2023-08-31T02:52:15;9.80;99.90
21830;DHT22;11077;50.264;6.798;2023-08-31T02:54:43;9.80;99.90
21830;DHT22;11077;50.264;6.798;2023-08-31T02:57:10;9.80;99.90
21830;DHT22;11077;50.264;6.798;2023-08-31T02:59:37;9.80;99.90
21830;DHT22;11077;50.264;6.798;2023-08-31T03:02:04;9.80;99.90
21830;DHT22;11077;50.264;6.798;2023-08-31T03:04:33;9.80;99.90
21830;DHT22;11077;50.264;6.798;2023-08-31T03:07:03;9.80;99.90
21830;DHT22;11077;50.264;6.798;2023-08-31T03:09:32;9.80;99.90
21830;DHT22;11077;50.264;6.798;2023-08-31T03:11:59;9.80;99.90
21830;DHT22;11077;50.264;6.798;2023-08-31T03:14:28;9.80;99.90
21830;DHT22;11077;50.264;6.798;2023-08-31T03:16:56;9.80;99.90
21830;DHT22;11077;50.264;6.798;2023-08-31T03:19:23;9.80;99.90
21830;DHT22;11077;50.264;6.798;2023-08-31T03:21:52;9.80;99.90
21830;DHT22;11077;50.264;6.798;2023-08-31T03:24:20;9.80;99.90
21830;DHT22;11077;50.264;6.798;2023-08-31T03:26:48;9.80;99.90
21830;DHT22;11077;50.264;6.798;2023-08-31T03:29:16;9.80;99.90
21830;DHT22;11077;50.264;6.798;2023-08-31T03:31:43;9.80;99.90
21830;DHT22;11077;50.264;6.798;2023-08-31T03:34:10;9.80;99.90
21830;DHT22;11077;50.264;6.798;2023-08-31T03:36:37;9.90;99.90
21830;DHT22;11077;50.264;6.798;2023-08-31T03:39:07;9.80;99.90
21830;DHT22;11077;50.264;6.798;2023-08-31T03:41:34;9.80;99.90
21830;DHT22;11077;50.264;6.798;2023-08-31T03:44:01;9.90;99.90
21830;DHT22;11077;50.264;6.798;2023-08-31T03:46:29;9.80;99.90
21830;DHT22;11077;50.264;6.798;2023-08-31T03:48:56;9.80;99.90
21830;DHT22;11077;50.264;6.798;2023-08-31T03:51:23;9.90;99.90
21830;DHT22;11077;50.264;6.798;2023-08-31T03:53:50;9.80;99.90
21830;DHT22;11077;50.264;6.798;2023-08-31T03:56:23;9.80;99.90
21830;DHT22;11077;50.264;6.798;2023-08-31T03:58:50;9.80;99.90
21830;DHT22;11077;50.264;6.798;2023-08-31T04:01:18;9.80;99.90
21830;DHT22;11077;50.264;6.798;2023-08-31T04:03:46;9.80;99.90
21830;DHT22;11077;50.264;6.798;2023-08-31T04:06:14;9.80;99.90
21830;DHT22;11077;50.264;6.798;2023-08-31T04:08:41;9.80;99.90
21830;DHT22;11077;50.264;6.798;2023-08-31T04:11:09;9.80;99.90
21830;DHT22;11077;50.264;6.798;2023-08-31T04:13:37;9.80;99.90
21830;DHT22;11077;50.264;6.798;2023-08-31T04:16:05;9.80;99.90
21830;DHT22;11077;50.264;6.798;2023-08-31T04:18:35;9.80;99.90
21830;DHT22;11077;50.264;6.798;2023-08-31T04:21:02;9.80;99.90
21830;DHT22;11077;50.264;6.798;2023-08-31T04:23:30;9.70;99.90
21830;DHT22;11077;50.264;6.798;2023-08-31T04:25:57;9.70;99.90
21830;DHT22;11077;50.264;6.798;2023-08-31T04:28:25;9.70;99.90
21830;DHT22;11077;50.264;6.798;2023-08-31T04:30:53;9.70;99.90
21830;DHT22;11077;50.264;6.798;2023-08-31T04:33:20;9.70;99.90
21830;DHT22;11077;50.264;6.798;2023-08-31T04:35:48;9.70;99.90
21830;DHT22;11077;50.264;6.798;2023-08-31T04:38:15;9.70;99.90
21830;DHT22;11077;50.264;6.798;2023-08-31T04:40:42;9.70;99.90
21830;DHT22;11077;50.264;6.798;2023-08-31T04:43:10;9.70;99.90
21830;DHT22;11077;50.264;6.798;2023-08-31T04:45:37;9.60;99.90
21830;DHT22;11077;50.264;6.798;2023-08-31T04:48:07;9.70;99.90
21830;DHT22;11077;50.264;6.798;2023-08-31T04:50:35;9.70;99.90
21830;DHT22;11077;50.264;6.798;2023-08-31T04:53:02;9.70;99.90
21830;DHT22;11077;50.264;6.798;2023-08-31T04:55:30;9.70;99.90
21830;DHT22;11077;50.264;6.798;2023-08-31T04:57:58;9.70;99.90
21830;DHT22;11077;50.264;6.798;2023-08-31T05:00:25;9.70;99.90
21830;DHT22;11077;50.264;6.798;2023-08-31T05:02:53;9.70;99.90
21830;DHT22;11077;50.264;6.798;2023-08-31T05:05:22;9.80;99.90
21830;DHT22;11077;50.264;6.798;2023-08-31T05:07:50;9.80;99.90
21830;DHT22;11077;50.264;6.798;2023-08-31T05:10:17;9.80;99.90
21830;DHT22;11077;50.264;6.798;2023-08-31T05:12:44;9.90;99.90
21830;DHT22;11077;50.264;6.798;2023-08-31T05:15:12;9.90;99.90
21830;DHT22;11077;50.264;6.798;2023-08-31T05:17:39;9.90;99.90
21830;DHT22;11077;50.264;6.798;2023-08-31T05:20:08;10.00;99.90
21830;DHT22;11077;50.264;6.798;2023-08-31T05:22:37;9.90;99.90
21830;DHT22;11077;50.264;6.798;2023-08-31T05:25:05;10.00;99.90
21830;DHT22;11077;50.264;6.798;2023-08-31T05:27:32;10.00;99.90
21830;DHT22;11077;50.264;6.798;2023-08-31T05:29:59;10.00;99.90
21830;DHT22;11077;50.264;6.798;2023-08-31T05:32:28;10.00;99.90
21830;DHT22;11077;50.264;6.798;2023-08-31T05:34:56;10.00;99.90
21830;DHT22;11077;50.264;6.798;2023-08-31T05:37:24;10.00;99.90
21830;DHT22;11077;50.264;6.798;2023-08-31T05:39:53;10.00;99.90
21830;DHT22;11077;50.264;6.798;2023-08-31T05:42:20;10.00;99.90
21830;DHT22;11077;50.264;6.798;2023-08-31T05:44:47;10.00;99.90
21830;DHT22;11077;50.264;6.798;2023-08-31T05:47:15;9.90;99.90
21830;DHT22;11077;50.264;6.798;2023-08-31T05:49:42;9.90;99.90
21830;DHT22;11077;50.264;6.798;2023-08-31T05:52:09;9.90;99.90
21830;DHT22;11077;50.264;6.798;2023-08-31T05:54:37;9.90;99.90
21830;DHT22;11077;50.264;6.798;2023-08-31T05:57:05;10.00;99.90
21830;DHT22;11077;50.264;6.798;2023-08-31T05:59:34;10.00;99.90
21830;DHT22;11077;50.264;6.798;2023-08-31T06:02:04;10.00;99.90
21830;DHT22;11077;50.264;6.798;2023-08-31T06:04:34;9.90;99.90
21830;DHT22;11077;50.264;6.798;2023-08-31T06:07:01;10.00;99.90
21830;DHT22;11077;50.264;6.798;2023-08-31T06:09:29;10.00;99.90
21830;DHT22;11077;50.264;6.798;2023-08-31T06:11:57;10.00;99.90
21830;DHT22;11077;50.264;6.798;2023-08-31T06:14:25;10.00;99.90
21830;DHT22;11077;50.264;6.798;2023-08-31T06:16:53;10.00;99.90
21830;DHT22;11077;50.264;6.798;2023-08-31T06:19:20;10.00;99.90
21830;DHT22;11077;50.264;6.798;2023-08-31T06:21:49;10.10;99.90
21830;DHT22;11077;50.264;6.798;2023-08-31T06:24:16;10.10;99.90
21830;DHT22;11077;50.264;6.798;2023-08-31T06:26:44;10.10;99.90
21830;DHT22;11077;50.264;6.798;2023-08-31T06:29:11;10.10;99.90
21830;DHT22;11077;50.264;6.798;2023-08-31T06:31:41;10.10;99.90
21830;DHT22;11077;50.264;6.798;2023-08-31T06:34:09;10.10;99.90
21830;DHT22;11077;50.264;6.798;2023-08-31T06:36:36;10.10;99.90
21830;DHT22;11077;50.264;6.798;2023-08-31T06:39:03;10.10;99.90
21830;DHT22;11077;50.264;6.798;2023-08-31T06:41:31;10.10;99.90
21830;DHT22;11077;50.264;6.798;2023-08-31T06:43:58;10.10;99.90
21830;DHT22;11077;50.264;6.798;2023-08-31T06:46:25;10.10;99.90
21830;DHT22;11077;50.264;6.798;2023-08-31T06:48:57;10.10;99.90
21830;DHT22;11077;50.264;6.798;2023-08-31T06:51:25;10.20;99.90
21830;DHT22;11077;50.264;6.798;2023-08-31T06:53:52;10.30;99.90
21830;DHT22;11077;50.264;6.798;2023-08-31T06:56:19;10.30;99.90
21830;DHT22;11077;50.264;6.798;2023-08-31T06:58:46;10.40;99.90
21830;DHT22;11077;50.264;6.798;2023-08-31T07:01:14;10.40;99.90
21830;DHT22;11077;50.264;6.798;2023-08-31T07:03:41;10.50;99.90
21830;DHT22;11077;50.264;6.798;2023-08-31T07:06:10;10.50;99.90
21830;DHT22;11077;50.264;6.798;2023-08-31T07:08:38;10.60;99.90
21830;DHT22;11077;50.264;6.798;2023-08-31T07:11:06;10.60;99.90
21830;DHT22;11077;50.264;6.798;2023-08-31T07:13:33;10.70;99.90
21830;DHT22;11077;50.264;6.798;2023-08-31T07:16:01;10.80;99.90
21830;DHT22;11077;50.264;6.798;2023-08-31T07:18:28;10.80;99.90
21830;DHT22;11077;50.264;6.798;2023-08-31T07:20:56;10.90;99.90
21830;DHT22;11077;50.264;6.798;2023-08-31T07:23:25;10.90;99.90
21830;DHT22;11077;50.264;6.798;2023-08-31T07:25:52;10.90;99.90
21830;DHT22;11077;50.264;6.798;2023-08-31T07:28:19;10.90;99.90
21830;DHT22;11077;50.264;6.798;2023-08-31T07:30:47;10.90;99.90
21830;DHT22;11077;50.264;6.798;2023-08-31T07:33:15;11.00;99.90
21830;DHT22;11077;50.264;6.798;2023-08-31T07:35:42;11.00;99.90
21830;DHT22;11077;50.264;6.798;2023-08-31T07:38:10;11.00;99.90
21830;DHT22;11077;50.264;6.798;2023-08-31T07:40:40;11.10;99.90
21830;DHT22;11077;50.264;6.798;2023-08-31T07:43:07;11.20;99.90
21830;DHT22;11077;50.264;6.798;2023-08-31T07:45:35;11.30;99.90
21830;DHT22;11077;50.264;6.798;2023-08-31T07:48:02;11.40;99.90
21830;DHT22;11077;50.264;6.798;2023-08-31T07:50:30;11.50;99.90
21830;DHT22;11077;50.264;6.798;2023-08-31T07:52:59;11.60;99.90
21830;DHT22;11077;50.264;6.798;2023-08-31T07:55:29;11.80;99.90
21830;DHT22;11077;50.264;6.798;2023-08-31T07:57:57;11.80;99.90
21830;DHT22;11077;50.264;6.798;2023-08-31T08:00:25;11.90;99.90
21830;DHT22;11077;50.264;6.798;2023-08-31T08:02:54;12.10;99.90
21830;DHT22;11077;50.264;6.798;2023-08-31T08:05:23;12.20;99.90
21830;DHT22;11077;50.264;6.798;2023-08-31T08:07:50;12.30;99.90
21830;DHT22;11077;50.264;6.798;2023-08-31T08:10:19;12.40;99.90
21830;DHT22;11077;50.264;6.798;2023-08-31T08:12:46;12.50;99.90
21830;DHT22;11077;50.264;6.798;2023-08-31T08:15:14;12.50;99.90
21830;DHT22;11077;50.264;6.798;2023-08-31T08:17:42;12.50;99.90
21830;DHT22;11077;50.264;6.798;2023-08-31T08:20:10;12.60;99.90
21830;DHT22;11077;50.264;6.798;2023-08-31T08:22:37;12.60;99.90
21830;DHT22;11077;50.264;6.798;2023-08-31T08:25:05;12.70;99.90
21830;DHT22;11077;50.264;6.798;2023-08-31T08:27:32;12.80;99.90
21830;DHT22;11077;50.264;6.798;2023-08-31T08:30:00;12.90;99.90
21830;DHT22;11077;50.264;6.798;2023-08-31T08:32:29;12.90;99.90
21830;DHT22;11077;50.264;6.798;2023-08-31T08:34:57;13.10;99.90
21830;DHT22;11077;50.264;6.798;2023-08-31T08:37:24;13.20;99.90
21830;DHT22;11077;50.264;6.798;2023-08-31T08:39:51;13.30;99.90
21830;DHT22;11077;50.264;6.798;2023-08-31T08:42:19;13.40;99.90
21830;DHT22;11077;50.264;6.798;2023-08-31T08:44:51;13.50;99.90
21830;DHT22;11077;50.264;6.798;2023-08-31T08:47:18;13.60;99.90
21830;DHT22;11077;50.264;6.798;2023-08-31T08:49:47;13.60;99.90
21830;DHT22;11077;50.264;6.798;2023-08-31T08:52:15;13.70;99.90
21830;DHT22;11077;50.264;6.798;2023-08-31T08:54:45;13.70;99.90
21830;DHT22;11077;50.264;6.798;2023-08-31T08:57:13;13.70;99.90
21830;DHT22;11077;50.264;6.798;2023-08-31T08:59:44;13.80;99.90
21830;DHT22;11077;50.264;6.798;2023-08-31T09:02:11;14.00;99.90
21830;DHT22;11077;50.264;6.798;2023-08-31T09:04:39;14.10;99.90
21830;DHT22;11077;50.264;6.798;2023-08-31T09:07:07;14.20;99.90
21830;DHT22;11077;50.264;6.798;2023-08-31T09:09:48;14.20;99.90
21830;DHT22;11077;50.264;6.798;2023-08-31T09:12:16;14.20;99.90
21830;DHT22;11077;50.264;6.798;2023-08-31T09:14:57;14.30;99.90
21830;DHT22;11077;50.264;6.798;2023-08-31T09:17:24;14.50;99.90
21830;DHT22;11077;50.264;6.798;2023-08-31T09:19:59;14.50;99.90
21830;DHT22;11077;50.264;6.798;2023-08-31T09:22:32;14.50;99.90
21830;DHT22;11077;50.264;6.798;2023-08-31T09:24:59;14.60;99.90
21830;DHT22;11077;50.264;6.798;2023-08-31T09:27:27;14.60;99.90
21830;DHT22;11077;50.264;6.798;2023-08-31T09:29:55;14.70;99.90
21830;DHT22;11077;50.264;6.798;2023-08-31T09:32:24;14.90;99.90
21830;DHT22;11077;50.264;6.798;2023-08-31T09:34:54;15.10;99.90
21830;DHT22;11077;50.264;6.798;2023-08-31T09:37:22;15.20;99.90
21830;DHT22;11077;50.264;6.798;2023-08-31T09:40:04;15.20;99.90
21830;DHT22;11077;50.264;6.798;2023-08-31T09:42:37;15.20;99.90
21830;DHT22;11077;50.264;6.798;2023-08-31T09:45:05;15.20;99.90
21830;DHT22;11077;50.264;6.798;2023-08-31T09:47:33;15.20;99.90
21830;DHT22;11077;50.264;6.798;2023-08-31T09:50:01;15.00;99.90
21830;DHT22;11077;50.264;6.798;2023-08-31T09:52:29;14.90;99.90
21830;DHT22;11077;50.264;6.798;2023-08-31T09:54:58;14.70;99.90
21830;DHT22;11077;50.264;6.798;2023-08-31T09:57:28;14.60;99.90
21830;DHT22;11077;50.264;6.798;2023-08-31T09:59:56;14.60;99.90
21830;DHT22;11077;50.264;6.798;2023-08-31T10:02:24;14.60;99.90
21830;DHT22;11077;50.264;6.798;2023-08-31T10:04:52;14.70;99.90
21830;DHT22;11077;50.264;6.798;2023-08-31T10:07:21;14.80;99.90
21830;DHT22;11077;50.264;6.798;2023-08-31T10:09:48;14.80;99.90
21830;DHT22;11077;50.264;6.798;2023-08-31T10:12:17;14.70;99.90
21830;DHT22;11077;50.264;6.798;2023-08-31T10:14:48;14.60;99.90
21830;DHT22;11077;50.264;6.798;2023-08-31T10:17:19;14.60;99.90
21830;DHT22;11077;50.264;6.798;2023-08-31T10:19:47;14.80;99.90
21830;DHT22;11077;50.264;6.798;2023-08-31T10:22:15;14.90;99.90
21830;DHT22;11077;50.264;6.798;2023-08-31T10:24:56;15.10;99.90
21830;DHT22;11077;50.264;6.798;2023-08-31T10:27:24;15.10;99.90
21830;DHT22;11077;50.264;6.798;2023-08-31T10:29:53;15.10;99.90
21830;DHT22;11077;50.264;6.798;2023-08-31T10:32:20;15.10;99.90
21830;DHT22;11077;50.264;6.798;2023-08-31T10:35:06;15.00;99.90
21830;DHT22;11077;50.264;6.798;2023-08-31T10:37:34;15.00;99.90
21830;DHT22;11077;50.264;6.798;2023-08-31T10:40:08;15.10;99.90
21830;DHT22;11077;50.264;6.798;2023-08-31T10:42:46;15.10;99.90
21830;DHT22;11077;50.264;6.798;2023-08-31T10:45:19;15.10;99.90
21830;DHT22;11077;50.264;6.798;2023-08-31T10:47:48;15.10;99.90
21830;DHT22;11077;50.264;6.798;2023-08-31T10:50:17;15.00;99.90
21830;DHT22;11077;50.264;6.798;2023-08-31T10:52:45;14.90;99.90
21830;DHT22;11077;50.264;6.798;2023-08-31T10:55:13;14.80;99.90
21830;DHT22;11077;50.264;6.798;2023-08-31T10:57:40;14.70;99.90
21830;DHT22;11077;50.264;6.798;2023-08-31T11:00:08;14.70;99.90
21830;DHT22;11077;50.264;6.798;2023-08-31T11:02:42;14.60;99.90
21830;DHT22;11077;50.264;6.798;2023-08-31T11:05:12;14.60;99.90
21830;DHT22;11077;50.264;6.798;2023-08-31T11:07:44;14.60;99.90
21830;DHT22;11077;50.264;6.798;2023-08-31T11:10:14;14.70;99.90
21830;DHT22;11077;50.264;6.798;2023-08-31T11:12:42;14.80;99.90
21830;DHT22;11077;50.264;6.798;2023-08-31T11:15:11;14.70;99.90
21830;DHT22;11077;50.264;6.798;2023-08-31T11:17:42;14.60;99.90
21830;DHT22;11077;50.264;6.798;2023-08-31T11:20:13;14.60;99.90
21830;DHT22;11077;50.264;6.798;2023-08-31T11:22:43;14.70;99.90
21830;DHT22;11077;50.264;6.798;2023-08-31T11:25:12;14.70;99.90
21830;DHT22;11077;50.264;6.798;2023-08-31T11:27:39;14.70;99.90
21830;DHT22;11077;50.264;6.798;2023-08-31T11:30:12;14.70;99.90
21830;DHT22;11077;50.264;6.798;2023-08-31T11:32:46;14.60;99.90
21830;DHT22;11077;50.264;6.798;2023-08-31T11:35:14;14.70;99.90
21830;DHT22;11077;50.264;6.798;2023-08-31T11:37:42;14.70;99.90
21830;DHT22;11077;50.264;6.798;2023-08-31T11:40:10;14.80;99.90
21830;DHT22;11077;50.264;6.798;2023-08-31T11:42:38;14.70;99.90
21830;DHT22;11077;50.264;6.798;2023-08-31T11:45:07;15.00;99.90
21830;DHT22;11077;50.264;6.798;2023-08-31T11:47:34;15.20;99.90
21830;DHT22;11077;50.264;6.798;2023-08-31T11:50:08;15.40;99.90
21830;DHT22;11077;50.264;6.798;2023-08-31T11:52:37;15.50;99.90
21830;DHT22;11077;50.264;6.798;2023-08-31T11:55:10;15.50;99.90
21830;DHT22;11077;50.264;6.798;2023-08-31T11:57:38;15.50;99.90
21830;DHT22;11077;50.264;6.798;2023-08-31T12:00:06;15.40;99.90
21830;DHT22;11077;50.264;6.798;2023-08-31T12:02:36;15.40;99.90
21830;DHT22;11077;50.264;6.798;2023-08-31T12:05:06;15.40;99.90
21830;DHT22;11077;50.264;6.798;2023-08-31T12:07:42;15.50;99.90
21830;DHT22;11077;50.264;6.798;2023-08-31T12:10:10;15.60;99.90
21830;DHT22;11077;50.264;6.798;2023-08-31T12:12:41;15.60;99.90
21830;DHT22;11077;50.264;6.798;2023-08-31T12:15:14;15.60;99.90
21830;DHT22;11077;50.264;6.798;2023-08-31T12:17:47;15.70;99.90
21830;DHT22;11077;50.264;6.798;2023-08-31T12:20:24;15.90;99.90
21830;DHT22;11077;50.264;6.798;2023-08-31T12:22:52;15.90;99.90
21830;DHT22;11077;50.264;6.798;2023-08-31T12:25:22;16.00;99.90
21830;DHT22;11077;50.264;6.798;2023-08-31T12:27:50;16.10;99.90
21830;DHT22;11077;50.264;6.798;2023-08-31T12:30:17;16.30;99.90
21830;DHT22;11077;50.264;6.798;2023-08-31T12:32:45;16.50;99.90
21830;DHT22;11077;50.264;6.798;2023-08-31T12:35:12;16.70;99.90
21830;DHT22;11077;50.264;6.798;2023-08-31T12:37:41;16.80;99.90
21830;DHT22;11077;50.264;6.798;2023-08-31T12:40:09;16.80;99.90
21830;DHT22;11077;50.264;6.798;2023-08-31T12:42:36;16.80;99.90
21830;DHT22;11077;50.264;6.798;2023-08-31T12:45:04;16.80;99.90
21830;DHT22;11077;50.264;6.798;2023-08-31T12:47:32;16.80;99.90
21830;DHT22;11077;50.264;6.798;2023-08-31T12:50:00;16.80;99.90
21830;DHT22;11077;50.264;6.798;2023-08-31T12:52:28;16.70;99.90
21830;DHT22;11077;50.264;6.798;2023-08-31T12:54:58;16.80;99.90
21830;DHT22;11077;50.264;6.798;2023-08-31T12:57:26;16.80;99.90
21830;DHT22;11077;50.264;6.798;2023-08-31T12:59:54;16.80;99.90
21830;DHT22;11077;50.264;6.798;2023-08-31T13:02:21;16.60;99.90
21830;DHT22;11077;50.264;6.798;2023-08-31T13:04:49;16.50;99.90
21830;DHT22;11077;50.264;6.798;2023-08-31T13:07:16;16.30;99.90
21830;DHT22;11077;50.264;6.798;2023-08-31T13:09:43;16.30;99.90
21830;DHT22;11077;50.264;6.798;2023-08-31T13:12:15;16.30;99.90
21830;DHT22;11077;50.264;6.798;2023-08-31T13:14:44;16.20;99.90
21830;DHT22;11077;50.264;6.798;2023-08-31T13:17:11;16.10;99.90
21830;DHT22;11077;50.264;6.798;2023-08-31T13:19:38;16.10;99.90
21830;DHT22;11077;50.264;6.798;2023-08-31T13:22:05;16.10;99.90
21830;DHT22;11077;50.264;6.798;2023-08-31T13:24:33;16.00;99.90
21830;DHT22;11077;50.264;6.798;2023-08-31T13:27:00;16.00;99.90
21830;DHT22;11077;50.264;6.798;2023-08-31T13:29:30;16.00;99.90
21830;DHT22;11077;50.264;6.798;2023-08-31T13:31:57;16.10;99.90
21830;DHT22;11077;50.264;6.798;2023-08-31T13:34:25;16.10;99.90
21830;DHT22;11077;50.264;6.798;2023-08-31T13:36:52;16.20;99.90
21830;DHT22;11077;50.264;6.798;2023-08-31T13:39:19;16.10;99.90
21830;DHT22;11077;50.264;6.798;2023-08-31T13:41:47;16.10;99.90
21830;DHT22;11077;50.264;6.798;2023-08-31T13:44:14;16.20;99.90
21830;DHT22;11077;50.264;6.798;2023-08-31T13:46:43;16.30;99.90
21830;DHT22;11077;50.264;6.798;2023-08-31T13:49:10;16.50;99.90
21830;DHT22;11077;50.264;6.798;2023-08-31T13:51:38;16.50;99.90
21830;DHT22;11077;50.264;6.798;2023-08-31T13:54:05;16.50;99.90
21830;DHT22;11077;50.264;6.798;2023-08-31T13:56:33;16.50;99.90
21830;DHT22;11077;50.264;6.798;2023-08-31T13:59:00;16.40;99.90
21830;DHT22;11077;50.264;6.798;2023-08-31T14:01:28;16.30;99.90
21830;DHT22;11077;50.264;6.798;2023-08-31T14:03:57;16.20;99.90
21830;DHT22;11077;50.264;6.798;2023-08-31T14:06:24;16.20;99.90
21830;DHT22;11077;50.264;6.798;2023-08-31T14:08:52;16.10;99.90
21830;DHT22;11077;50.264;6.798;2023-08-31T14:11:19;16.10;99.90
21830;DHT22;11077;50.264;6.798;2023-08-31T14:13:46;16.00;99.90
21830;DHT22;11077;50.264;6.798;2023-08-31T14:16:14;16.10;99.90
21830;DHT22;11077;50.264;6.798;2023-08-31T14:18:41;16.10;99.90
21830;DHT22;11077;50.264;6.798;2023-08-31T14:21:14;16.10;99.90
21830;DHT22;11077;50.264;6.798;2023-08-31T14:23:42;16.10;99.90
21830;DHT22;11077;50.264;6.798;2023-08-31T14:26:11;16.10;99.90
21830;DHT22;11077;50.264;6.798;2023-08-31T14:28:39;16.10;99.90
21830;DHT22;11077;50.264;6.798;2023-08-31T14:31:06;16.10;99.90
21830;DHT22;11077;50.264;6.798;2023-08-31T14:33:34;16.10;99.90
21830;DHT22;11077;50.264;6.798;2023-08-31T14:36:01;16.10;99.90
21830;DHT22;11077;50.264;6.798;2023-08-31T14:38:30;16.10;99.90
21830;DHT22;11077;50.264;6.798;2023-08-31T14:40:57;16.10;99.90
21830;DHT22;11077;50.264;6.798;2023-08-31T14:43:25;16.00;99.90
21830;DHT22;11077;50.264;6.798;2023-08-31T14:45:52;16.10;99.90
21830;DHT22;11077;50.264;6.798;2023-08-31T14:48:19;16.00;99.90
21830;DHT22;11077;50.264;6.798;2023-08-31T14:50:46;15.90;99.90
21830;DHT22;11077;50.264;6.798;2023-08-31T14:53:14;15.90;99.90
21830;DHT22;11077;50.264;6.798;2023-08-31T14:55:48;15.80;99.90
21830;DHT22;11077;50.264;6.798;2023-08-31T14:58:15;15.80;99.90
21830;DHT22;11077;50.264;6.798;2023-08-31T15:00:42;15.90;99.90
21830;DHT22;11077;50.264;6.798;2023-08-31T15:03:10;15.90;99.90
21830;DHT22;11077;50.264;6.798;2023-08-31T15:05:38;16.00;99.90
21830;DHT22;11077;50.264;6.798;2023-08-31T15:08:07;16.10;99.90
21830;DHT22;11077;50.264;6.798;2023-08-31T15:10:34;16.10;99.90
21830;DHT22;11077;50.264;6.798;2023-08-31T15:13:03;16.10;99.90
21830;DHT22;11077;50.264;6.798;2023-08-31T15:15:30;16.00;99.90
21830;DHT22;11077;50.264;6.798;2023-08-31T15:17:57;16.00;99.90
21830;DHT22;11077;50.264;6.798;2023-08-31T15:20:25;15.90;99.90
21830;DHT22;11077;50.264;6.798;2023-08-31T15:22:52;15.90;99.90
21830;DHT22;11077;50.264;6.798;2023-08-31T15:25:19;15.80;99.90
21830;DHT22;11077;50.264;6.798;2023-08-31T15:27:47;15.70;99.90
21830;DHT22;11077;50.264;6.798;2023-08-31T15:30:15;15.70;99.90
21830;DHT22;11077;50.264;6.798;2023-08-31T15:32:43;15.70;99.90
21830;DHT22;11077;50.264;6.798;2023-08-31T15:35:10;15.70;99.90
21830;DHT22;11077;50.264;6.798;2023-08-31T15:37:37;15.70;99.90
21830;DHT22;11077;50.264;6.798;2023-08-31T15:40:06;15.60;99.90
21830;DHT22;11077;50.264;6.798;2023-08-31T15:42:33;15.60;99.90